Time;durP1;ratioP1;P1;durP2;ratioP2;P2;SDS_P1;SDS_P2;PMS_P1;PMS_P2;Temp;Humidity;BMP_temperature;BMP_pressure;BME280_temperature;BME280_humidity;BME280_pressure;Samples;Min_cycle;Max_cycle;Signal;HPM_P1;HPM_P2
2021/09/25 00:01:13;;;;;;;7.50;3.75;;;;;;;13.26;100.00;101053.78;4947051;28;20044;-68
2021/09/25 00:03:43;;;;;;;8.07;3.88;;;;;;;13.31;100.00;101043.38;4948293;28;20051;-68
2021/09/25 00:06:11;;;;;;;9.45;4.45;;;;;;;13.28;100.00;101043.69;4947269;28;20070;-67
2021/09/25 00:08:38;;;;;;;10.75;3.75;;;;;;;13.11;100.00;101042.94;4946254;28;20043;-68
2021/09/25 00:11:07;;;;;;;8.43;3.97;;;;;;;12.96;100.00;101039.34;4948450;28;20125;-69
2021/09/25 00:13:35;;;;;;;9.43;4.13;;;;;;;12.99;100.00;101039.81;4949747;28;20049;-69
2021/09/25 00:16:07;;;;;;;9.57;4.32;;;;;;;12.98;100.00;101031.94;4944761;28;20050;-68
2021/09/25 00:18:35;;;;;;;7.85;4.18;;;;;;;12.86;100.00;101034.19;4944546;28;20051;-68
2021/09/25 00:21:05;;;;;;;9.05;3.95;;;;;;;12.76;100.00;101031.69;4950923;28;20047;-69
2021/09/25 00:23:33;;;;;;;9.25;3.95;;;;;;;12.68;100.00;101035.22;4947101;28;20047;-67
2021/09/25 00:26:01;;;;;;;11.75;4.55;;;;;;;12.67;100.00;101038.94;4947083;28;20121;-69
2021/09/25 00:28:29;;;;;;;9.80;4.90;;;;;;;12.74;100.00;101047.94;4948029;28;20297;-68
2021/09/25 00:30:57;;;;;;;11.57;5.05;;;;;;;12.81;100.00;101047.25;4942684;28;20058;-69
2021/09/25 00:33:24;;;;;;;12.07;4.65;;;;;;;12.81;100.00;101052.59;4946289;28;20430;-68
2021/09/25 00:35:52;;;;;;;10.70;4.90;;;;;;;12.71;100.00;101052.81;4949913;28;20051;-69
2021/09/25 00:38:22;;;;;;;8.38;4.28;;;;;;;12.58;100.00;101045.28;4945175;28;20046;-68
2021/09/25 00:40:50;;;;;;;8.68;4.45;;;;;;;12.60;100.00;101040.59;4945249;28;20051;-68
2021/09/25 00:43:19;;;;;;;13.98;5.70;;;;;;;12.49;100.00;101043.63;4945549;28;20040;-68
2021/09/25 00:45:48;;;;;;;9.95;4.35;;;;;;;12.43;100.00;101042.47;4941522;28;20313;-68
2021/09/25 00:48:16;;;;;;;11.32;6.10;;;;;;;12.43;100.00;101044.31;4939202;28;20273;-69
2021/09/25 00:50:44;;;;;;;12.65;6.40;;;;;;;12.30;100.00;101052.88;4944379;28;20051;-68
2021/09/25 00:53:11;;;;;;;10.70;5.68;;;;;;;12.28;100.00;101045.00;4946396;28;20039;-68
2021/09/25 00:55:41;;;;;;;18.45;7.10;;;;;;;12.23;100.00;101048.19;4951175;28;20327;-68
2021/09/25 00:58:09;;;;;;;16.92;6.25;;;;;;;12.11;100.00;101052.22;4946905;28;20043;-69
2021/09/25 01:00:37;;;;;;;11.05;5.80;;;;;;;11.92;100.00;101052.50;4945045;28;20105;-69
2021/09/25 01:03:05;;;;;;;14.25;5.80;;;;;;;11.93;100.00;101055.00;4943603;28;20050;-68
2021/09/25 01:05:33;;;;;;;11.57;6.53;;;;;;;11.97;100.00;101051.03;4946270;28;20094;-68
2021/09/25 01:08:01;;;;;;;12.23;5.78;;;;;;;11.93;100.00;101044.31;4948591;28;20047;-68
2021/09/25 01:10:30;;;;;;;16.42;7.10;;;;;;;11.85;100.00;101044.28;4942711;28;20046;-68
2021/09/25 01:13:00;;;;;;;17.42;6.75;;;;;;;11.60;100.00;101044.28;4950433;28;20043;-68
2021/09/25 01:15:28;;;;;;;18.40;7.07;;;;;;;11.45;100.00;101048.56;4952028;28;20431;-68
2021/09/25 01:17:56;;;;;;;18.45;7.35;;;;;;;11.46;100.00;101044.91;4949883;28;20047;-68
2021/09/25 01:20:24;;;;;;;15.68;7.15;;;;;;;11.58;100.00;101042.75;4949968;28;20043;-69
2021/09/25 01:22:53;;;;;;;19.05;8.23;;;;;;;11.53;100.00;101043.25;4951995;28;20047;-69
2021/09/25 01:25:21;;;;;;;19.38;8.75;;;;;;;11.70;100.00;101044.94;4951843;28;20113;-68
2021/09/25 01:27:49;;;;;;;21.08;8.50;;;;;;;11.63;100.00;101041.25;4952789;28;20043;-67
2021/09/25 01:30:17;;;;;;;18.52;8.55;;;;;;;11.44;100.00;101041.56;4950296;28;20048;-68
2021/09/25 01:32:46;;;;;;;20.52;9.23;;;;;;;11.34;100.00;101061.25;4949866;28;20051;-68
2021/09/25 01:35:16;;;;;;;18.20;7.82;;;;;;;11.25;100.00;101054.19;4949922;28;20495;-67
2021/09/25 01:37:45;;;;;;;18.73;8.82;;;;;;;11.24;100.00;101054.34;4953278;28;20050;-68
2021/09/25 01:40:15;;;;;;;22.75;9.38;;;;;;;11.29;100.00;101058.22;4941986;28;20055;-69
2021/09/25 01:42:44;;;;;;;26.98;9.68;;;;;;;11.44;100.00;101055.78;4945652;28;20035;-68
2021/09/25 01:45:14;;;;;;;24.60;10.40;;;;;;;11.43;100.00;101059.44;4946964;28;20051;-67
2021/09/25 01:47:42;;;;;;;24.50;10.73;;;;;;;11.44;100.00;101054.91;4947353;28;20142;-67
2021/09/25 01:50:12;;;;;;;31.50;11.48;;;;;;;11.37;100.00;101058.25;4946614;28;20039;-68
2021/09/25 01:52:41;;;;;;;24.70;9.95;;;;;;;11.30;100.00;101059.91;4949361;28;20522;-68
2021/09/25 01:55:10;;;;;;;23.38;10.25;;;;;;;11.11;100.00;101057.50;4947074;28;20112;-68
2021/09/25 01:57:39;;;;;;;28.17;11.57;;;;;;;11.26;100.00;101055.88;4945635;28;20039;-68
2021/09/25 02:00:09;;;;;;;25.55;10.80;;;;;;;11.31;100.00;101061.59;4943036;28;20051;-69
2021/09/25 02:02:37;;;;;;;28.98;11.95;;;;;;;11.34;100.00;101069.28;4944721;28;20051;-68
2021/09/25 02:05:06;;;;;;;26.90;12.07;;;;;;;11.41;100.00;101064.13;4952383;28;20097;-68
2021/09/25 02:07:34;;;;;;;25.40;11.35;;;;;;;11.42;100.00;101063.09;4949807;28;20043;-68
2021/09/25 02:10:03;;;;;;;31.63;12.93;;;;;;;11.46;100.00;101064.47;4949481;28;20051;-68
2021/09/25 02:12:31;;;;;;;34.53;12.10;;;;;;;11.48;100.00;101065.16;4945501;28;20051;-68
2021/09/25 02:15:00;;;;;;;32.38;12.45;;;;;;;11.49;100.00;101065.97;4950531;28;20132;-67
2021/09/25 02:17:28;;;;;;;37.42;13.73;;;;;;;11.52;100.00;101062.97;4946276;28;20439;-68
2021/09/25 02:19:56;;;;;;;36.92;14.35;;;;;;;11.61;100.00;101063.81;4948313;28;20043;-68
2021/09/25 02:22:24;;;;;;;43.28;14.80;;;;;;;11.58;100.00;101056.13;4951917;28;20051;-68
2021/09/25 02:24:52;;;;;;;40.38;15.77;;;;;;;11.65;100.00;101055.31;4948321;28;20055;-68
2021/09/25 02:27:19;;;;;;;37.22;13.88;;;;;;;11.70;100.00;101055.66;4954523;28;20062;-68
2021/09/25 02:29:47;;;;;;;46.45;16.13;;;;;;;11.68;100.00;101055.00;4945955;28;20284;-68
2021/09/25 02:32:17;;;;;;;40.63;15.73;;;;;;;11.59;100.00;101055.97;4944980;28;20401;-69
2021/09/25 02:34:44;;;;;;;41.78;15.88;;;;;;;11.62;100.00;101060.16;4948807;28;20135;-69
2021/09/25 02:37:12;;;;;;;40.80;16.17;;;;;;;11.53;100.00;101067.31;4948614;28;20181;-68
2021/09/25 02:39:40;;;;;;;37.38;14.15;;;;;;;11.48;100.00;101061.63;4946239;28;20435;-68
2021/09/25 02:42:08;;;;;;;36.70;15.02;;;;;;;11.41;100.00;101063.28;4951803;28;20065;-68
2021/09/25 02:44:36;;;;;;;38.88;14.32;;;;;;;11.34;100.00;101053.25;4953287;28;20047;-68
2021/09/25 02:47:04;;;;;;;36.90;13.82;;;;;;;11.32;100.00;101059.75;4942362;28;20265;-69
2021/09/25 02:49:33;;;;;;;45.83;15.18;;;;;;;11.33;100.00;101054.22;4944675;28;20596;-68
2021/09/25 02:52:01;;;;;;;41.13;13.93;;;;;;;11.32;100.00;101051.72;4949133;28;20044;-68
2021/09/25 02:54:29;;;;;;;43.67;15.63;;;;;;;11.24;100.00;101049.88;4948235;28;20059;-69
2021/09/25 02:56:57;;;;;;;48.63;15.18;;;;;;;11.31;100.00;101047.38;4948722;28;20051;-68
2021/09/25 02:59:25;;;;;;;49.78;16.25;;;;;;;11.28;100.00;101047.69;4945504;28;20043;-69
2021/09/25 03:01:53;;;;;;;50.85;16.73;;;;;;;11.39;100.00;101043.91;4949430;28;20051;-69
2021/09/25 03:04:21;;;;;;;42.35;15.50;;;;;;;11.32;100.00;101043.69;4946136;28;20402;-67
2021/09/25 03:06:50;;;;;;;46.90;14.32;;;;;;;11.26;100.00;101036.34;4945152;28;20055;-66
2021/09/25 03:09:18;;;;;;;37.78;14.10;;;;;;;11.24;100.00;101031.16;4940673;28;20465;-66
2021/09/25 03:11:46;;;;;;;39.25;15.52;;;;;;;11.16;100.00;101036.47;4943806;28;20047;-66
2021/09/25 03:14:14;;;;;;;42.25;14.55;;;;;;;11.14;100.00;101028.63;4941328;28;20109;-66
2021/09/25 03:16:42;;;;;;;38.15;12.65;;;;;;;11.16;100.00;101028.44;4938995;28;20082;-66
2021/09/25 03:19:10;;;;;;;36.17;12.80;;;;;;;11.15;100.00;101030.25;4946380;28;20039;-66
2021/09/25 03:21:40;;;;;;;39.80;15.23;;;;;;;11.21;100.00;101031.47;4941626;28;20047;-69
2021/09/25 03:24:09;;;;;;;39.97;15.20;;;;;;;11.19;100.00;101025.44;4943613;28;20052;-67
2021/09/25 03:26:37;;;;;;;49.33;16.05;;;;;;;11.16;100.00;101031.13;4941463;28;20047;-68
2021/09/25 03:29:05;;;;;;;35.05;14.82;;;;;;;11.05;100.00;101020.72;4946298;28;20043;-67
2021/09/25 03:31:33;;;;;;;42.38;14.50;;;;;;;10.98;100.00;101029.38;4941987;28;20070;-69
2021/09/25 03:34:01;;;;;;;40.90;14.40;;;;;;;10.87;100.00;101020.81;4945084;28;20122;-66
2021/09/25 03:36:29;;;;;;;39.60;14.80;;;;;;;10.76;100.00;101030.78;4946636;28;20140;-66
2021/09/25 03:38:57;;;;;;;38.55;14.30;;;;;;;10.69;100.00;101024.41;4941461;28;20611;-68
2021/09/25 03:41:26;;;;;;;40.38;13.95;;;;;;;10.59;100.00;101029.84;4937517;28;20055;-68
2021/09/25 03:43:54;;;;;;;42.88;13.43;;;;;;;10.58;100.00;101022.84;4943620;28;20051;-68
2021/09/25 03:46:22;;;;;;;45.78;14.70;;;;;;;10.56;100.00;101029.31;4944025;28;20050;-68
2021/09/25 03:48:51;;;;;;;41.15;15.18;;;;;;;10.65;100.00;101029.22;4947219;28;20047;-69
2021/09/25 03:51:19;;;;;;;37.70;14.80;;;;;;;10.56;100.00;101027.50;4939789;28;20051;-69
2021/09/25 03:53:47;;;;;;;40.70;14.85;;;;;;;10.47;100.00;101028.44;4946736;28;20046;-68
2021/09/25 03:56:15;;;;;;;48.20;13.85;;;;;;;10.43;100.00;101032.41;4942737;28;20088;-68
2021/09/25 03:58:45;;;;;;;47.20;16.15;;;;;;;10.56;100.00;101024.84;4941955;28;20097;-68
2021/09/25 04:01:12;;;;;;;45.35;16.60;;;;;;;10.81;100.00;101027.63;4942057;28;20419;-68
2021/09/25 04:03:41;;;;;;;48.85;15.70;;;;;;;10.77;100.00;101027.09;4942932;28;20054;-68
2021/09/25 04:06:09;;;;;;;48.75;15.02;;;;;;;10.68;100.00;101038.75;4946012;28;20130;-69
2021/09/25 04:08:37;;;;;;;50.58;15.20;;;;;;;10.62;100.00;101037.53;4945743;28;20051;-68
2021/09/25 04:11:05;;;;;;;60.20;15.93;;;;;;;10.54;100.00;101047.34;4945609;28;20093;-68
2021/09/25 04:13:34;;;;;;;45.88;16.73;;;;;;;10.46;100.00;101042.78;4946233;28;20082;-68
2021/09/25 04:16:03;;;;;;;43.15;16.35;;;;;;;10.56;100.00;101048.88;4944130;28;20097;-68
2021/09/25 04:18:31;;;;;;;47.28;15.05;;;;;;;10.53;100.00;101046.50;4946189;28;20047;-68
2021/09/25 04:20:59;;;;;;;46.88;15.93;;;;;;;10.56;100.00;101053.34;4940086;28;20039;-69
2021/09/25 04:23:27;;;;;;;55.53;17.25;;;;;;;10.63;100.00;101054.41;4942772;28;20047;-68
2021/09/25 04:25:55;;;;;;;57.85;16.90;;;;;;;10.53;100.00;101057.16;4944568;28;20046;-68
2021/09/25 04:28:23;;;;;;;59.03;16.08;;;;;;;10.45;100.00;101054.47;4941020;28;20077;-68
2021/09/25 04:30:51;;;;;;;55.05;17.05;;;;;;;10.46;100.00;101064.13;4943689;28;20054;-68
2021/09/25 04:33:20;;;;;;;54.53;17.23;;;;;;;10.59;100.00;101056.56;4944152;28;20051;-67
2021/09/25 04:35:48;;;;;;;48.30;16.55;;;;;;;10.67;100.00;101063.78;4950892;28;20047;-67
2021/09/25 04:38:16;;;;;;;48.97;16.38;;;;;;;10.60;100.00;101066.22;4945067;28;20327;-68
2021/09/25 04:40:44;;;;;;;52.20;17.63;;;;;;;10.49;100.00;101064.69;4943774;28;20368;-68
2021/09/25 04:43:12;;;;;;;52.72;15.73;;;;;;;10.44;100.00;101058.13;4945953;28;20055;-68
2021/09/25 04:45:40;;;;;;;57.20;16.58;;;;;;;10.35;100.00;101054.56;4945460;28;20044;-68
2021/09/25 04:48:08;;;;;;;50.42;17.00;;;;;;;10.31;100.00;101059.34;4944397;28;20108;-68
2021/09/25 04:50:37;;;;;;;54.38;16.55;;;;;;;10.22;100.00;101049.59;4943331;28;20051;-69
2021/09/25 04:53:06;;;;;;;48.45;15.88;;;;;;;10.40;100.00;101046.09;4947530;28;20047;-68
2021/09/25 04:55:34;;;;;;;53.85;17.83;;;;;;;10.59;100.00;101047.69;4945508;28;20568;-68
2021/09/25 04:58:02;;;;;;;57.25;18.20;;;;;;;10.45;100.00;101049.13;4946967;28;20442;-68
2021/09/25 05:00:31;;;;;;;67.00;18.65;;;;;;;10.39;100.00;101049.75;4943424;28;20071;-69
2021/09/25 05:02:59;;;;;;;65.55;17.90;;;;;;;10.46;100.00;101062.31;4940256;28;20057;-69
2021/09/25 05:05:28;;;;;;;50.00;16.38;;;;;;;10.53;100.00;101057.16;4937445;28;20039;-68
2021/09/25 05:07:57;;;;;;;56.97;18.02;;;;;;;10.54;100.00;101058.84;4942460;28;20054;-68
2021/09/25 05:10:25;;;;;;;57.58;18.00;;;;;;;10.59;100.00;101063.72;4938227;28;20035;-68
2021/09/25 05:12:53;;;;;;;53.17;17.60;;;;;;;10.76;100.00;101057.50;4940811;28;20648;-68
2021/09/25 05:15:21;;;;;;;67.57;19.27;;;;;;;10.66;100.00;101057.59;4943718;28;20109;-68
2021/09/25 05:17:49;;;;;;;52.80;17.40;;;;;;;10.71;100.00;101053.63;4946842;28;20436;-67
2021/09/25 05:20:17;;;;;;;64.22;18.92;;;;;;;10.82;100.00;101056.03;4941287;28;20123;-68
2021/09/25 05:22:48;;;;;;;64.50;20.27;;;;;;;10.78;100.00;101058.16;4944253;28;20428;-70
2021/09/25 05:25:17;;;;;;;59.40;18.08;;;;;;;10.84;100.00;101064.69;4944561;28;20264;-71
2021/09/25 05:27:48;;;;;;;64.38;19.85;;;;;;;10.83;100.00;101068.38;4943183;28;20062;-70
2021/09/25 05:30:16;;;;;;;57.78;17.52;;;;;;;10.65;100.00;101074.63;4941614;28;20047;-71
2021/09/25 05:32:44;;;;;;;63.05;19.33;;;;;;;10.74;100.00;101083.50;4942618;28;20435;-68
2021/09/25 05:35:12;;;;;;;71.78;18.77;;;;;;;10.84;100.00;101084.25;4946509;28;20425;-68
2021/09/25 05:37:39;;;;;;;57.10;17.38;;;;;;;11.03;100.00;101080.50;4944921;28;20308;-68
2021/09/25 05:40:09;;;;;;;53.80;17.85;;;;;;;11.11;100.00;101082.38;4941814;28;20482;-68
2021/09/25 05:42:38;;;;;;;59.38;17.98;;;;;;;11.17;100.00;101081.75;4949996;28;20054;-68
2021/09/25 05:45:08;;;;;;;52.25;17.67;;;;;;;11.13;100.00;101083.06;4944510;28;20063;-69
2021/09/25 05:47:36;;;;;;;58.60;17.20;;;;;;;11.11;100.00;101081.53;4943845;28;20054;-68
2021/09/25 05:50:05;;;;;;;59.88;19.95;;;;;;;11.07;100.00;101074.84;4940098;28;20040;-68
2021/09/25 05:52:33;;;;;;;66.47;18.15;;;;;;;10.96;100.00;101076.81;4943336;28;20432;-69
2021/09/25 05:55:01;;;;;;;62.30;19.67;;;;;;;10.94;100.00;101078.78;4946628;28;20350;-69
2021/09/25 05:57:29;;;;;;;61.40;19.45;;;;;;;10.96;100.00;101084.00;4940344;28;20038;-69
2021/09/25 05:59:59;;;;;;;63.92;18.05;;;;;;;11.01;100.00;101077.16;4945559;28;20382;-69
2021/09/25 06:02:26;;;;;;;65.15;19.92;;;;;;;11.01;100.00;101076.31;4943289;28;20047;-69
2021/09/25 06:04:55;;;;;;;56.08;18.58;;;;;;;11.24;100.00;101081.09;4951727;28;20047;-68
2021/09/25 06:07:23;;;;;;;54.20;17.88;;;;;;;11.56;100.00;101088.41;4949334;28;20275;-68
2021/09/25 06:09:51;;;;;;;68.43;19.08;;;;;;;11.70;100.00;101082.41;4945563;28;20495;-69
2021/09/25 06:12:19;;;;;;;51.10;17.85;;;;;;;11.98;100.00;101078.63;4949030;28;20387;-68
2021/09/25 06:14:47;;;;;;;51.95;18.13;;;;;;;11.97;100.00;101077.78;4948952;28;20050;-69
2021/09/25 06:17:16;;;;;;;55.50;18.27;;;;;;;12.23;100.00;101071.44;4943877;28;20074;-69
2021/09/25 06:19:44;;;;;;;49.95;17.92;;;;;;;12.37;100.00;101075.28;4946659;28;20048;-69
2021/09/25 06:22:12;;;;;;;45.42;16.67;;;;;;;12.52;100.00;101059.38;4949987;28;20043;-68
2021/09/25 06:24:40;;;;;;;45.55;17.02;;;;;;;12.73;100.00;101062.34;4952828;28;20406;-68
2021/09/25 06:27:08;;;;;;;36.60;15.25;;;;;;;12.83;100.00;101061.31;4945376;28;20134;-69
2021/09/25 06:29:36;;;;;;;43.45;15.73;;;;;;;12.98;100.00;101048.84;4943917;28;20043;-68
2021/09/25 06:32:04;;;;;;;39.35;16.10;;;;;;;13.09;100.00;101056.53;4947129;28;20067;-68
2021/09/25 06:34:34;;;;;;;33.75;14.07;;;;;;;13.21;100.00;101040.91;4952910;28;20121;-69
2021/09/25 06:37:02;;;;;;;28.98;13.25;;;;;;;13.22;100.00;101045.22;4949292;28;20044;-68
2021/09/25 06:39:30;;;;;;;30.73;13.63;;;;;;;13.46;100.00;101024.69;4946795;28;20047;-68
2021/09/25 06:41:58;;;;;;;31.98;13.30;;;;;;;13.56;100.00;101019.94;4951742;28;20153;-68
2021/09/25 06:44:26;;;;;;;28.55;11.93;;;;;;;13.73;100.00;101026.00;4946918;28;20136;-68
2021/09/25 06:46:54;;;;;;;29.88;13.10;;;;;;;13.84;100.00;101022.09;4940845;28;20043;-67
2021/09/25 06:49:23;;;;;;;25.20;12.07;;;;;;;14.05;100.00;101017.91;4949268;28;20043;-66
2021/09/25 06:51:53;;;;;;;22.55;11.00;;;;;;;14.10;100.00;100999.38;4948067;28;20062;-68
2021/09/25 06:54:21;;;;;;;23.92;11.73;;;;;;;13.96;100.00;101001.00;4949409;28;20051;-67
2021/09/25 06:56:49;;;;;;;22.88;10.93;;;;;;;14.30;100.00;100986.25;4945209;28;20038;-69
2021/09/25 06:59:17;;;;;;;27.23;11.60;;;;;;;14.40;100.00;101000.28;4954571;28;20050;-65
2021/09/25 07:01:45;;;;;;;24.95;11.77;;;;;;;14.53;100.00;100996.09;4943914;28;20063;-65
2021/09/25 07:04:13;;;;;;;26.60;11.82;;;;;;;14.38;100.00;100990.72;4952906;28;20043;-65
2021/09/25 07:06:41;;;;;;;24.60;11.60;;;;;;;14.34;100.00;100994.81;4947539;28;20036;-66
2021/09/25 07:09:11;;;;;;;19.88;10.88;;;;;;;14.50;100.00;100999.16;4948106;28;20039;-69
2021/09/25 07:11:38;;;;;;;23.25;10.60;;;;;;;14.51;100.00;100998.97;4946237;28;20034;-68
2021/09/25 07:14:06;;;;;;;22.35;10.90;;;;;;;14.39;100.00;101006.66;4947655;28;20305;-67
2021/09/25 07:16:35;;;;;;;22.40;11.52;;;;;;;14.41;100.00;101007.31;4951362;28;20055;-66
2021/09/25 07:19:05;;;;;;;21.92;10.27;;;;;;;14.71;100.00;101007.34;4950309;28;20053;-67
2021/09/25 07:21:33;;;;;;;21.00;9.70;;;;;;;14.45;100.00;101011.28;4942577;28;20051;-67
2021/09/25 07:24:01;;;;;;;21.40;10.85;;;;;;;14.40;100.00;101008.34;4945397;28;20105;-67
2021/09/25 07:26:30;;;;;;;25.05;11.15;;;;;;;14.33;100.00;100999.34;4943661;28;20039;-67
2021/09/25 07:28:58;;;;;;;21.02;10.75;;;;;;;14.27;100.00;101013.50;4946317;28;20055;-67
2021/09/25 07:31:27;;;;;;;24.25;11.55;;;;;;;14.22;100.00;101015.91;4943273;28;20043;-68
2021/09/25 07:33:54;;;;;;;23.80;11.95;;;;;;;14.40;100.00;101019.09;4946636;28;20463;-67
2021/09/25 07:36:24;;;;;;;31.10;11.85;;;;;;;14.20;100.00;101020.63;4943302;28;20051;-68
2021/09/25 07:38:52;;;;;;;26.48;12.27;;;;;;;14.18;100.00;101017.28;4946113;28;20332;-67
2021/09/25 07:41:23;;;;;;;23.92;11.45;;;;;;;14.14;100.00;101021.34;4942515;28;20356;-67
2021/09/25 07:43:53;;;;;;;25.02;11.98;;;;;;;14.01;100.00;101030.84;4944258;28;20059;-68
2021/09/25 07:46:21;;;;;;;29.17;13.32;;;;;;;13.84;100.00;101038.19;4943998;28;20074;-67
2021/09/25 07:48:49;;;;;;;30.15;12.98;;;;;;;13.89;100.00;101051.94;4945505;28;20228;-68
2021/09/25 07:51:17;;;;;;;30.40;14.52;;;;;;;13.83;100.00;101052.63;4942034;28;20093;-67
2021/09/25 07:53:45;;;;;;;35.63;14.63;;;;;;;13.97;100.00;101059.06;4943123;28;20047;-67
2021/09/25 07:56:12;;;;;;;40.50;15.20;;;;;;;13.85;100.00;101055.97;4945723;28;20397;-68
2021/09/25 07:58:40;;;;;;;37.22;16.80;;;;;;;13.99;100.00;101067.78;4944286;28;20442;-67
2021/09/25 08:01:10;;;;;;;39.03;17.27;;;;;;;13.94;100.00;101056.75;4941940;28;20276;-68
2021/09/25 08:03:39;;;;;;;38.33;17.13;;;;;;;14.03;100.00;101066.41;4947172;28;20059;-68
2021/09/25 08:06:08;;;;;;;44.88;18.73;;;;;;;14.31;100.00;101057.78;4942965;28;20043;-67
2021/09/25 08:08:36;;;;;;;45.28;16.65;;;;;;;14.30;100.00;101064.16;4942691;28;20282;-67
2021/09/25 08:11:04;;;;;;;43.15;17.85;;;;;;;14.49;100.00;101064.66;4940990;28;20042;-68
2021/09/25 08:13:32;;;;;;;33.35;15.85;;;;;;;14.72;100.00;101065.47;4944652;28;20043;-68
2021/09/25 08:16:00;;;;;;;39.75;17.55;;;;;;;14.86;100.00;101057.59;4942333;28;20039;-67
2021/09/25 08:18:29;;;;;;;43.38;18.17;;;;;;;14.41;100.00;101061.03;4943156;28;20431;-68
2021/09/25 08:20:58;;;;;;;40.03;16.58;;;;;;;14.67;100.00;101059.78;4941266;28;20079;-68
2021/09/25 08:23:26;;;;;;;44.55;17.17;;;;;;;14.47;100.00;101048.72;4943265;28;20055;-68
2021/09/25 08:25:54;;;;;;;41.65;17.52;;;;;;;14.50;100.00;101053.75;4940270;28;20043;-67
2021/09/25 08:28:22;;;;;;;39.88;14.63;;;;;;;14.63;100.00;101059.34;4944721;28;20047;-68
2021/09/25 08:30:52;;;;;;;33.80;15.75;;;;;;;14.62;100.00;101063.03;4938872;28;20077;-67
2021/09/25 08:33:20;;;;;;;36.45;15.77;;;;;;;14.63;100.00;101058.53;4944260;28;20051;-67
2021/09/25 08:35:49;;;;;;;32.25;14.13;;;;;;;14.71;100.00;101066.47;4946289;28;20047;-68
2021/09/25 08:38:17;;;;;;;27.45;12.60;;;;;;;15.23;100.00;101069.25;4948273;28;20239;-67
2021/09/25 08:40:45;;;;;;;25.67;12.63;;;;;;;15.30;100.00;101062.09;4940400;28;20040;-67
2021/09/25 08:43:13;;;;;;;28.95;13.23;;;;;;;15.89;100.00;101057.59;4939568;28;20039;-68
2021/09/25 08:45:43;;;;;;;24.73;12.48;;;;;;;16.41;100.00;101061.75;4944492;28;20044;-67
2021/09/25 08:48:11;;;;;;;26.98;12.57;;;;;;;16.05;100.00;101057.34;4939124;28;20051;-67
2021/09/25 08:50:39;;;;;;;27.17;12.45;;;;;;;15.96;100.00;101055.78;4941370;28;20054;-68
2021/09/25 08:53:08;;;;;;;23.70;11.98;;;;;;;16.76;100.00;101051.00;4955057;28;20109;-68
2021/09/25 08:55:36;;;;;;;22.05;10.63;;;;;;;16.63;100.00;101049.06;4945011;28;20047;-67
2021/09/25 08:58:06;;;;;;;22.98;12.20;;;;;;;16.13;100.00;101054.50;4949099;28;20324;-68
2021/09/25 09:00:40;;;;;;;26.70;13.10;;;;;;;16.73;100.00;101059.50;4936944;28;20039;-68
2021/09/25 09:03:30;;;;;;;22.85;12.30;;;;;;;17.15;100.00;101060.38;4941111;28;20062;-67
2021/09/25 09:06:13;;;;;;;22.50;11.38;;;;;;;17.48;100.00;101045.31;4946764;28;20043;-67
2021/09/25 09:08:45;;;;;;;22.33;12.10;;;;;;;17.16;100.00;101034.22;4944412;28;20360;-68
2021/09/25 09:11:14;;;;;;;24.33;11.82;;;;;;;16.88;100.00;101051.31;4945286;28;20108;-68
2021/09/25 09:13:44;;;;;;;24.13;12.40;;;;;;;17.90;100.00;101046.03;4941529;28;20047;-68
2021/09/25 09:16:13;;;;;;;22.98;12.18;;;;;;;18.30;100.00;101037.13;4939699;28;20048;-68
2021/09/25 09:18:43;;;;;;;26.02;10.95;;;;;;;18.84;100.00;101025.19;4944694;28;20073;-68
2021/09/25 09:21:13;;;;;;;21.05;9.77;;;;;;;18.92;100.00;101024.16;4939965;28;21067;-67
2021/09/25 09:23:45;;;;;;;15.95;9.88;;;;;;;19.32;100.00;101017.72;4943853;28;20040;-67
2021/09/25 09:26:16;;;;;;;13.95;9.02;;;;;;;18.27;100.00;101027.56;4946465;28;20105;-67
2021/09/25 09:28:45;;;;;;;19.70;9.63;;;;;;;18.19;100.00;101038.63;4938972;28;20063;-67
2021/09/25 09:31:14;;;;;;;16.08;8.38;;;;;;;19.17;100.00;101026.16;4943013;28;20473;-67
2021/09/25 09:33:44;;;;;;;17.58;8.90;;;;;;;18.57;100.00;101019.00;4941232;28;20054;-67
2021/09/25 09:36:22;;;;;;;16.65;8.13;;;;;;;18.19;100.00;101028.63;4947423;28;20047;-67
2021/09/25 09:38:54;;;;;;;18.73;9.15;;;;;;;19.29;100.00;101023.59;4946245;28;20384;-67
2021/09/25 09:41:25;;;;;;;18.35;8.60;;;;;;;19.06;100.00;101014.13;4945413;28;20056;-67
2021/09/25 09:43:55;;;;;;;11.98;7.97;;;;;;;20.10;100.00;101013.88;4945487;28;20055;-68
2021/09/25 09:46:40;;;;;;;18.85;8.48;;;;;;;19.05;100.00;101013.28;4947057;28;20047;-67
2021/09/25 09:49:12;;;;;;;15.50;8.10;;;;;;;17.73;100.00;101015.88;4947874;28;20124;-68
2021/09/25 09:51:43;;;;;;;15.75;8.90;;;;;;;18.08;100.00;101014.94;4946256;28;20051;-68
2021/09/25 09:54:18;;;;;;;15.18;8.55;;;;;;;17.91;100.00;101012.63;4947757;28;20063;-67
2021/09/25 09:56:47;;;;;;;17.33;8.30;;;;;;;19.32;100.00;101002.34;4948967;28;20043;-67
2021/09/25 09:59:16;;;;;;;14.27;7.82;;;;;;;20.55;100.00;100993.88;4947015;28;20451;-67
2021/09/25 10:01:45;;;;;;;12.43;7.05;;;;;;;19.73;100.00;100992.06;4942807;28;20039;-67
2021/09/25 10:04:14;;;;;;;10.80;6.15;;;;;;;20.25;100.00;100989.16;4950331;28;20161;-67
2021/09/25 10:06:43;;;;;;;11.05;6.05;;;;;;;20.95;100.00;100983.41;4950211;28;20051;-66
2021/09/25 10:09:13;;;;;;;12.07;6.45;;;;;;;21.92;100.00;100981.59;4949537;28;20057;-66
2021/09/25 10:11:44;;;;;;;11.15;6.60;;;;;;;22.06;100.00;100981.38;4943659;28;20043;-66
2021/09/25 10:14:16;;;;;;;11.63;6.10;;;;;;;22.56;100.00;100980.91;4949515;28;20345;-66
2021/09/25 10:16:45;;;;;;;10.27;5.70;;;;;;;21.76;100.00;100980.41;4944910;28;20043;-66
2021/09/25 10:19:13;;;;;;;10.55;5.57;;;;;;;21.76;100.00;100979.56;4946374;28;20084;-66
2021/09/25 10:21:42;;;;;;;11.07;7.07;;;;;;;21.74;100.00;100976.25;4945601;28;20101;-66
2021/09/25 10:24:13;;;;;;;11.15;6.18;;;;;;;22.01;100.00;100985.66;4949077;28;20089;-67
2021/09/25 10:26:45;;;;;;;10.02;6.15;;;;;;;22.69;100.00;100983.34;4943444;28;20073;-66
2021/09/25 10:29:18;;;;;;;11.13;5.75;;;;;;;22.56;100.00;100980.91;4949618;28;20258;-66
2021/09/25 10:31:47;;;;;;;9.48;6.40;;;;;;;22.74;100.00;100982.66;4944876;28;20054;-65
2021/09/25 10:34:18;;;;;;;12.02;6.60;;;;;;;21.90;100.00;100972.88;4951977;28;21059;-65
2021/09/25 10:36:49;;;;;;;12.82;6.50;;;;;;;22.23;100.00;100976.88;4943558;28;20055;-66
2021/09/25 10:39:23;;;;;;;8.13;4.97;;;;;;;21.95;100.00;100981.13;4950743;28;20067;-66
2021/09/25 10:41:59;;;;;;;9.23;5.00;;;;;;;21.16;100.00;100964.97;4946793;28;20048;-67
2021/09/25 10:44:28;;;;;;;8.75;5.32;;;;;;;21.21;100.00;100973.25;4948930;28;20484;-66
2021/09/25 10:47:08;;;;;;;11.63;6.25;;;;;;;22.51;100.00;100961.72;4942112;28;20054;-66
2021/09/25 10:49:52;;;;;;;11.07;6.57;;;;;;;23.07;100.00;100959.34;4950696;28;20457;-66
2021/09/25 10:52:25;;;;;;;8.88;5.53;;;;;;;23.02;100.00;100960.06;4948308;28;20047;-66
2021/09/25 10:55:19;;;;;;;9.00;5.68;;;;;;;22.48;100.00;100949.47;4945433;28;20047;-66
2021/09/25 10:58:33;;;;;;;7.45;5.07;;;;;;;22.53;100.00;100957.72;4948763;28;20055;-66
2021/09/25 11:01:07;;;;;;;10.75;6.40;;;;;;;22.92;100.00;100968.03;4969211;28;20499;-66
2021/09/25 11:03:58;;;;;;;7.30;4.93;;;;;;;22.83;100.00;100958.59;4945688;28;20051;-66
2021/09/25 11:06:33;;;;;;;7.57;4.40;;;;;;;23.02;100.00;100960.06;4947165;28;20497;-66
2021/09/25 11:09:04;;;;;;;9.80;5.68;;;;;;;23.83;100.00;100948.16;4951453;28;20328;-66
2021/09/25 11:11:35;;;;;;;6.63;4.45;;;;;;;24.36;100.00;100945.13;4942019;28;20446;-66
2021/09/25 11:14:14;;;;;;;6.95;4.30;;;;;;;24.65;100.00;100947.69;4945759;28;20055;-69